createdAt,value
2023-02-23T17:02:23.148Z,33.60
2023-02-23T17:03:55.143Z,28.40
2023-02-23T17:05:27.260Z,40.00
2023-02-23T17:07:00.943Z,22.00
2023-02-23T17:08:35.702Z,37.00
2023-02-23T17:10:08.773Z,31.60
2023-02-23T17:11:47.323Z,26.80
2023-02-23T17:13:20.763Z,32.40
2023-02-23T17:14:52.680Z,36.00
2023-02-23T17:16:25.075Z,33.60
2023-02-23T17:17:57.456Z,28.20
2023-02-23T17:19:29.615Z,20.40
2023-02-23T17:21:04.451Z,27.00
2023-02-23T17:22:36.431Z,36.00
2023-02-23T17:24:08.254Z,31.60
2023-02-23T17:25:40.363Z,33.40
2023-02-23T17:27:12.446Z,31.00
2023-02-23T17:28:44.549Z,31.20
2023-02-23T17:30:16.769Z,33.00
2023-02-23T17:31:49.440Z,34.60
2023-02-23T17:33:21.627Z,33.20
2023-02-23T17:34:53.630Z,34.20
2023-02-23T17:36:27.631Z,32.20
2023-02-23T17:38:00.729Z,37.00
2023-02-23T17:39:32.577Z,34.40
2023-02-23T17:41:08.450Z,29.60
2023-02-23T17:42:40.996Z,28.80
2023-02-23T17:44:13.163Z,35.20
2023-02-23T17:45:48.355Z,26.80
2023-02-23T17:47:20.348Z,32.60
2023-02-23T17:48:53.983Z,27.00
2023-02-23T17:50:28.799Z,34.40
2023-02-23T17:52:02.893Z,38.40
2023-02-23T17:53:35.181Z,33.40
2023-02-23T17:55:09.013Z,29.20
2023-02-23T17:56:41.682Z,36.40
2023-02-23T17:58:14.154Z,30.40
2023-02-23T17:59:46.204Z,23.00
2023-02-23T18:01:19.984Z,30.80
2023-02-23T18:02:52.279Z,38.20
2023-02-23T18:04:25.092Z,41.80
2023-02-23T18:06:17.073Z,52.80
2023-02-23T18:07:49.364Z,59.00
2023-02-23T18:09:21.523Z,70.00
2023-02-23T18:10:54.091Z,70.75
2023-02-23T18:12:26.010Z,76.50
2023-02-23T18:13:58.276Z,82.00
2023-02-23T18:15:30.957Z,97.00
2023-02-23T18:17:02.801Z,102.00
2023-02-23T18:18:38.279Z,106.20
2023-02-23T18:20:15.385Z,108.00
2023-02-23T18:21:47.402Z,112.60
2023-02-23T18:23:19.645Z,128.75
2023-02-23T18:24:53.045Z,95.40
2023-02-23T18:26:25.266Z,95.50
2023-02-23T18:27:58.776Z,115.40
2023-02-23T18:29:32.082Z,77.75
2023-02-23T18:31:04.220Z,82.25
2023-02-23T18:32:36.350Z,81.25
2023-02-23T18:34:09.964Z,69.25
2023-02-23T18:35:45.059Z,80.50
2023-02-23T18:37:25.213Z,97.00
2023-02-23T18:38:58.026Z,101.50
2023-02-23T18:40:29.984Z,105.25
2023-02-23T18:42:02.992Z,107.60
2023-02-23T18:43:35.084Z,116.40
2023-02-23T18:45:08.361Z,123.25
2023-02-23T18:46:41.094Z,121.00
2023-02-23T18:48:14.685Z,121.25
2023-02-23T18:49:47.801Z,136.75
2023-02-23T18:51:20.151Z,143.25
2023-02-23T18:52:53.882Z,135.50
2023-02-23T18:54:26.150Z,165.75
2023-02-23T18:55:58.038Z,148.25
2023-02-23T18:57:29.921Z,152.50
2023-02-23T18:59:02.005Z,158.25
2023-02-23T19:00:33.991Z,169.75
2023-02-23T19:02:06.014Z,171.25
2023-02-23T19:03:37.967Z,162.75
2023-02-23T19:05:12.947Z,164.50
2023-02-23T19:06:45.298Z,156.00
2023-02-23T19:08:17.160Z,177.25
2023-02-23T19:09:49.283Z,182.75
2023-02-23T19:11:29.189Z,238.00
2023-02-23T19:13:01.039Z,241.00
2023-02-23T19:14:48.290Z,213.00
2023-02-23T19:16:21.413Z,201.00
2023-02-23T19:17:54.572Z,178.50
2023-02-23T19:19:26.941Z,154.75
2023-02-23T19:20:59.203Z,160.25
2023-02-23T19:22:31.308Z,147.00
2023-02-23T19:24:03.581Z,152.25
2023-02-23T19:25:35.546Z,148.00
2023-02-23T19:27:07.479Z,155.25
2023-02-23T19:28:39.353Z,141.75
2023-02-23T19:30:11.949Z,151.00
2023-02-23T19:31:44.078Z,158.50
2023-02-23T19:33:16.814Z,156.00
2023-02-23T19:34:48.980Z,135.50
2023-02-23T19:36:22.715Z,154.25
2023-02-23T19:37:54.749Z,153.00
2023-02-23T19:39:29.488Z,167.50
2023-02-23T19:41:04.352Z,166.50
2023-02-23T19:42:37.064Z,167.50
2023-02-23T19:44:09.998Z,155.50
2023-02-23T19:45:46.254Z,150.00
2023-02-23T19:47:18.117Z,168.75
2023-02-23T19:48:52.073Z,142.50
2023-02-23T19:50:23.948Z,147.25
2023-02-23T19:51:57.914Z,152.25
2023-02-23T19:53:29.966Z,166.50
2023-02-23T19:55:02.219Z,158.25
2023-02-23T19:56:34.484Z,174.00
2023-02-23T19:58:06.465Z,161.00
2023-02-23T19:59:38.377Z,172.50
2023-02-23T20:01:11.264Z,188.75
2023-02-23T20:02:43.290Z,181.00
2023-02-23T20:04:15.131Z,172.50
2023-02-23T20:05:47.157Z,174.25
2023-02-23T20:07:19.003Z,181.50
2023-02-23T20:08:52.573Z,188.50
2023-02-23T20:10:25.821Z,199.75
2023-02-23T20:11:57.720Z,196.75
2023-02-23T20:13:29.556Z,192.50
2023-02-23T20:15:01.603Z,185.33
2023-02-23T20:16:34.319Z,197.33
2023-02-23T20:18:07.421Z,210.67
2023-02-23T20:19:39.440Z,198.00
2023-02-23T20:21:16.154Z,200.67
2023-02-23T20:22:48.076Z,192.00
2023-02-23T20:24:20.243Z,200.33
2023-02-23T20:25:52.247Z,191.50
2023-02-23T20:27:24.197Z,173.25
2023-02-23T20:28:56.417Z,191.25
2023-02-23T20:30:53.258Z,196.75
2023-02-23T20:32:27.527Z,196.00
2023-02-23T20:34:02.307Z,196.67
2023-02-23T20:35:34.669Z,245.33
2023-02-23T20:37:06.618Z,200.67
2023-02-23T20:38:38.896Z,191.00
2023-02-23T20:40:18.775Z,189.50
2023-02-23T20:41:53.774Z,187.25
2023-02-23T20:43:25.676Z,173.00
2023-02-23T20:44:57.599Z,197.00
2023-02-23T20:46:30.748Z,200.33
2023-02-23T20:48:05.019Z,192.75
2023-02-23T20:49:37.445Z,184.25
2023-02-23T20:51:12.893Z,205.50
2023-02-23T20:52:46.003Z,178.50
2023-02-23T20:54:18.025Z,174.00
2023-02-23T20:55:49.898Z,190.50
2023-02-23T20:57:21.787Z,185.75
2023-02-23T20:58:54.572Z,192.75
2023-02-23T21:00:33.055Z,181.00
2023-02-23T21:02:05.730Z,173.50
2023-02-23T21:03:37.638Z,234.00
2023-02-23T21:05:12.127Z,201.33
2023-02-23T21:06:44.039Z,186.25
2023-02-23T21:08:15.967Z,185.75
2023-02-23T21:09:47.813Z,187.75
2023-02-23T21:11:20.387Z,187.75
2023-02-23T21:12:53.204Z,184.25
2023-02-23T21:14:25.030Z,191.50
2023-02-23T21:16:01.151Z,188.25
2023-02-23T21:17:33.344Z,184.00
2023-02-23T21:19:05.238Z,166.00
2023-02-23T21:20:38.120Z,188.75
2023-02-23T21:22:09.986Z,174.75
2023-02-23T21:23:44.920Z,235.67
2023-02-23T21:25:19.517Z,205.00
2023-02-23T21:26:51.606Z,194.50
2023-02-23T21:28:23.478Z,190.75
2023-02-23T21:29:55.516Z,200.75
2023-02-23T21:31:28.157Z,187.75
2023-02-23T21:33:00.369Z,189.25
2023-02-23T21:34:32.321Z,193.75
2023-02-23T21:36:04.666Z,183.50
2023-02-23T21:37:37.285Z,182.25
2023-02-23T21:39:09.140Z,197.00
2023-02-23T21:40:42.483Z,188.00
2023-02-23T21:42:14.401Z,185.75
2023-02-23T21:43:48.692Z,200.75
2023-02-23T21:45:20.652Z,193.00
2023-02-23T21:46:52.626Z,174.75
2023-02-23T21:48:25.758Z,237.67
2023-02-23T21:49:58.339Z,250.33
2023-02-23T21:51:34.645Z,219.67
2023-02-23T21:53:06.601Z,198.67
2023-02-23T21:54:38.410Z,199.00
2023-02-23T21:56:12.441Z,181.50
2023-02-23T21:57:44.720Z,186.00
2023-02-23T21:59:16.547Z,179.25
2023-02-23T22:00:49.087Z,186.00
2023-02-23T22:02:21.061Z,189.50
2023-02-23T22:03:55.187Z,182.25
2023-02-23T22:05:27.041Z,181.25
2023-02-23T22:06:58.880Z,186.25
2023-02-23T22:08:30.684Z,191.00
2023-02-23T22:10:02.740Z,199.25
2023-02-23T22:11:35.797Z,190.50
2023-02-23T22:13:07.681Z,185.75
2023-02-23T22:14:39.792Z,195.25
2023-02-23T22:16:14.248Z,197.25
2023-02-23T22:17:46.238Z,189.00
2023-02-23T22:19:18.281Z,194.50
2023-02-23T22:20:56.591Z,201.00
2023-02-23T22:22:28.399Z,174.75
2023-02-23T22:24:01.741Z,164.50
2023-02-23T22:25:33.614Z,182.50
2023-02-23T22:27:06.810Z,179.75
2023-02-23T22:28:38.778Z,174.75
2023-02-23T22:30:12.369Z,297.00
2023-02-23T22:31:44.322Z,322.25
2023-02-23T22:33:16.749Z,277.00
2023-02-23T22:34:48.621Z,252.00
2023-02-23T22:36:20.501Z,220.67
2023-02-23T22:37:52.681Z,222.00
2023-02-23T22:39:24.586Z,216.67
2023-02-23T22:40:56.516Z,199.00
2023-02-23T22:42:35.518Z,193.33
2023-02-23T22:44:08.641Z,200.00
2023-02-23T22:45:42.048Z,199.50
2023-02-23T22:47:14.319Z,189.25
2023-02-23T22:48:46.164Z,187.25
2023-02-23T22:50:19.361Z,190.50
2023-02-23T22:51:51.611Z,177.50
2023-02-23T22:53:23.710Z,179.25
2023-02-23T22:54:55.978Z,196.25
2023-02-23T22:56:28.146Z,175.00
2023-02-23T22:58:00.879Z,184.50
2023-02-23T22:59:33.668Z,182.00
2023-02-23T23:01:09.852Z,193.50
2023-02-23T23:02:42.243Z,158.50
2023-02-23T23:04:15.073Z,163.75
2023-02-23T23:05:51.200Z,165.75
2023-02-23T23:07:26.059Z,156.75
2023-02-23T23:08:58.351Z,162.00
2023-02-23T23:10:30.319Z,156.00
2023-02-23T23:12:03.113Z,166.00
2023-02-23T23:13:38.850Z,148.25
2023-02-23T23:15:19.145Z,168.75
2023-02-23T23:16:51.060Z,154.50
2023-02-23T23:18:24.551Z,150.50
2023-02-23T23:19:56.985Z,134.25
2023-02-23T23:21:29.262Z,151.75
2023-02-23T23:23:01.054Z,161.00
2023-02-23T23:24:32.939Z,147.50
2023-02-23T23:26:06.678Z,147.25
2023-02-23T23:27:41.659Z,151.75
2023-02-23T23:29:14.512Z,157.25
2023-02-23T23:30:47.459Z,143.25
2023-02-23T23:32:19.471Z,149.50
2023-02-23T23:33:51.700Z,153.50
